createdAt,value
2018-03-06T00:00:50.958Z,982.25
2018-03-06T00:01:50.928Z,982.22
2018-03-06T00:02:50.897Z,982.21
2018-03-06T00:03:50.867Z,982.22
2018-03-06T00:04:50.838Z,982.24
2018-03-06T00:05:50.808Z,982.2
2018-03-06T00:06:50.777Z,982.21
2018-03-06T00:07:50.751Z,982.21
2018-03-06T00:08:50.720Z,982.21
2018-03-06T00:09:50.689Z,982.18
2018-03-06T00:10:50.659Z,982.19
2018-03-06T00:11:50.631Z,982.19
2018-03-06T00:12:50.696Z,982.17
2018-03-06T00:13:50.569Z,982.15
2018-03-06T00:14:50.540Z,982.16
2018-03-06T00:15:50.608Z,982.17
2018-03-06T00:16:50.529Z,982.18
2018-03-06T00:17:50.452Z,982.16
2018-03-06T00:18:50.421Z,982.15
2018-03-06T00:19:50.390Z,982.17
2018-03-06T00:20:50.360Z,982.16
2018-03-06T00:21:50.330Z,982.16
2018-03-06T00:22:50.300Z,982.13
2018-03-06T00:23:50.270Z,982.16
2018-03-06T00:24:50.240Z,982.15
2018-03-06T00:25:50.209Z,982.14
2018-03-06T00:26:50.181Z,982.12
2018-03-06T00:27:50.149Z,982.14
2018-03-06T00:28:50.121Z,982.17
2018-03-06T00:29:50.188Z,982.16
2018-03-06T00:30:50.060Z,982.12
2018-03-06T00:31:50.028Z,982.14
2018-03-06T00:32:49.997Z,982.1
2018-03-06T00:33:49.969Z,982.1
2018-03-06T00:34:49.938Z,982.12
2018-03-06T00:35:49.911Z,982.12
2018-03-06T00:36:49.877Z,982.1
2018-03-06T00:37:49.848Z,982.09
2018-03-06T00:38:49.825Z,982.12
2018-03-06T00:39:49.786Z,982.08
2018-03-06T00:40:49.758Z,982.11
2018-03-06T00:41:49.728Z,982.1
2018-03-06T00:42:49.696Z,982.08
2018-03-06T00:43:49.667Z,982.07
2018-03-06T00:44:49.635Z,982.06
2018-03-06T00:45:49.608Z,982.05
2018-03-06T00:46:49.576Z,982.02
2018-03-06T00:47:49.546Z,982.02
2018-03-06T00:48:49.522Z,981.98
2018-03-06T00:49:49.485Z,981.98
2018-03-06T00:50:49.455Z,982.01
2018-03-06T00:51:49.425Z,981.97
2018-03-06T00:52:49.395Z,981.98
2018-03-06T00:53:49.362Z,981.98
2018-03-06T00:54:49.332Z,981.96
2018-03-06T00:55:49.302Z,981.95
2018-03-06T00:56:49.273Z,981.95
2018-03-06T00:57:49.242Z,981.94
2018-03-06T00:58:49.212Z,981.91
2018-03-06T00:59:49.183Z,981.89
2018-03-06T01:00:49.159Z,981.91
2018-03-06T01:01:49.120Z,981.88
2018-03-06T01:02:49.091Z,981.9
2018-03-06T01:03:49.063Z,981.89
2018-03-06T01:04:49.028Z,981.86
2018-03-06T01:05:49.001Z,981.87
2018-03-06T01:06:48.970Z,981.88
2018-03-06T01:07:48.938Z,981.87
2018-03-06T01:08:48.913Z,981.81
2018-03-06T01:09:48.879Z,981.85
2018-03-06T01:10:48.848Z,981.79
2018-03-06T01:11:48.818Z,981.78
2018-03-06T01:12:48.787Z,981.77
2018-03-06T01:13:48.760Z,981.76
2018-03-06T01:14:48.728Z,981.74
2018-03-06T01:15:48.695Z,981.72
2018-03-06T01:16:48.666Z,981.7
2018-03-06T01:17:48.635Z,981.74
2018-03-06T01:18:48.604Z,981.69
2018-03-06T01:19:48.572Z,981.68
2018-03-06T01:20:48.544Z,981.62
2018-03-06T01:21:48.513Z,981.62
2018-03-06T01:22:48.484Z,981.64
2018-03-06T01:23:48.454Z,981.59
2018-03-06T01:24:48.422Z,981.59
2018-03-06T01:25:48.395Z,981.55
2018-03-06T01:26:48.362Z,981.57
2018-03-06T01:27:48.331Z,981.54
2018-03-06T01:28:48.300Z,981.56
2018-03-06T01:29:48.270Z,981.53
2018-03-06T01:30:48.242Z,981.54
2018-03-06T01:31:48.208Z,981.52
2018-03-06T01:32:48.179Z,981.51
2018-03-06T01:33:48.147Z,981.5
2018-03-06T01:34:48.118Z,981.5
2018-03-06T01:35:48.086Z,981.46
2018-03-06T01:36:48.056Z,981.46
2018-03-06T01:37:48.025Z,981.46
2018-03-06T01:38:47.995Z,981.43
2018-03-06T01:39:47.965Z,981.49
2018-03-06T01:40:47.934Z,981.42
2018-03-06T01:41:47.903Z,981.41
2018-03-06T01:42:47.873Z,981.4
2018-03-06T01:43:47.843Z,981.37
2018-03-06T01:44:47.812Z,981.38
2018-03-06T01:45:47.784Z,981.37
2018-03-06T01:46:47.752Z,981.37
2018-03-06T01:47:47.720Z,981.37
2018-03-06T01:48:47.689Z,981.36
2018-03-06T01:49:47.659Z,981.39
2018-03-06T01:50:47.628Z,981.35
2018-03-06T01:51:47.597Z,981.37
2018-03-06T01:52:47.566Z,981.37
2018-03-06T01:53:47.538Z,981.36
2018-03-06T01:54:47.505Z,981.4
2018-03-06T01:55:47.473Z,981.35
2018-03-06T01:56:47.442Z,981.34
2018-03-06T01:57:47.671Z,981.33
2018-03-06T01:58:47.382Z,981.31
2018-03-06T01:59:47.351Z,981.3
2018-03-06T02:00:47.320Z,981.29
2018-03-06T02:01:47.290Z,981.3
2018-03-06T02:02:47.259Z,981.37
2018-03-06T02:03:47.228Z,981.3
2018-03-06T02:04:47.197Z,981.28
2018-03-06T02:05:47.166Z,981.3
2018-03-06T02:06:47.135Z,981.28
2018-03-06T02:07:47.105Z,981.26
2018-03-06T02:08:47.076Z,981.22
2018-03-06T02:09:47.043Z,981.22
2018-03-06T02:10:47.010Z,981.22
2018-03-06T02:11:46.981Z,981.24
2018-03-06T02:12:46.948Z,981.2
2018-03-06T02:13:46.917Z,981.2
2018-03-06T02:14:46.886Z,981.19
2018-03-06T02:15:46.857Z,981.22
2018-03-06T02:16:46.824Z,981.21
2018-03-06T02:17:46.794Z,981.17
2018-03-06T02:18:46.762Z,981.17
2018-03-06T02:19:46.733Z,981.18
2018-03-06T02:20:46.700Z,981.15
2018-03-06T02:21:46.668Z,981.19
2018-03-06T02:22:46.638Z,981.13
2018-03-06T02:23:46.608Z,981.09
2018-03-06T02:24:46.575Z,981.09
2018-03-06T02:25:46.545Z,981.09
2018-03-06T02:26:46.515Z,981.06
2018-03-06T02:27:46.482Z,981.04
2018-03-06T02:28:46.452Z,981.02
2018-03-06T02:29:46.420Z,981.01
2018-03-06T02:30:46.390Z,981.07
2018-03-06T02:31:46.359Z,981.03
2018-03-06T02:32:46.327Z,981.04
2018-03-06T02:33:46.300Z,981.03
2018-03-06T02:34:46.265Z,981.03
2018-03-06T02:35:46.233Z,980.98
2018-03-06T02:36:46.202Z,981
2018-03-06T02:37:46.171Z,981
2018-03-06T02:38:46.140Z,980.96
2018-03-06T02:39:46.108Z,980.98
2018-03-06T02:40:46.076Z,980.97
2018-03-06T02:41:46.047Z,980.96
2018-03-06T02:42:46.016Z,980.96
2018-03-06T02:43:45.982Z,980.92
2018-03-06T02:44:45.952Z,980.9
2018-03-06T02:45:45.921Z,980.87
2018-03-06T02:46:45.889Z,980.88
2018-03-06T02:47:45.857Z,980.86
2018-03-06T02:48:45.826Z,980.85
2018-03-06T02:49:45.918Z,980.85
2018-03-06T02:50:45.762Z,980.92
2018-03-06T02:51:45.732Z,980.88
2018-03-06T02:52:45.702Z,980.89
2018-03-06T02:53:45.671Z,980.87
2018-03-06T02:54:45.638Z,980.85
2018-03-06T02:55:45.608Z,980.82
2018-03-06T02:56:45.577Z,980.84
2018-03-06T02:57:45.545Z,980.84
2018-03-06T02:58:45.514Z,980.81
2018-03-06T02:59:45.482Z,980.85
2018-03-06T03:00:45.451Z,980.82
2018-03-06T03:01:45.438Z,980.84
2018-03-06T03:02:45.388Z,980.87
2018-03-06T03:03:45.356Z,980.85
2018-03-06T03:04:45.325Z,980.89
2018-03-06T03:05:45.296Z,980.86
2018-03-06T03:06:45.261Z,980.89
2018-03-06T03:07:45.230Z,980.85
2018-03-06T03:08:45.197Z,980.88
2018-03-06T03:09:45.168Z,980.88
2018-03-06T03:10:45.140Z,980.85
2018-03-06T03:11:45.104Z,980.84
2018-03-06T03:12:45.073Z,980.81
2018-03-06T03:13:45.041Z,980.82
2018-03-06T03:14:45.009Z,980.79
2018-03-06T03:15:44.979Z,980.8
2018-03-06T03:16:44.949Z,980.81
2018-03-06T03:17:44.917Z,980.82
2018-03-06T03:18:44.885Z,980.81
2018-03-06T03:19:45.869Z,980.79
2018-03-06T03:20:44.960Z,980.77
2018-03-06T03:21:44.791Z,980.8
2018-03-06T03:22:44.762Z,980.75
2018-03-06T03:23:44.734Z,980.75
2018-03-06T03:24:44.696Z,980.76
2018-03-06T03:25:44.664Z,980.8
2018-03-06T03:26:44.633Z,980.75
2018-03-06T03:27:44.600Z,980.74
2018-03-06T03:28:44.572Z,980.76
2018-03-06T03:29:44.538Z,980.7
2018-03-06T03:30:44.512Z,980.75
2018-03-06T03:31:44.476Z,980.73
2018-03-06T03:32:44.444Z,980.72
2018-03-06T03:33:44.413Z,980.71
2018-03-06T03:34:44.381Z,980.72
2018-03-06T03:35:44.349Z,980.69
2018-03-06T03:36:44.318Z,980.69
2018-03-06T03:37:44.286Z,980.65
2018-03-06T03:38:44.257Z,980.66
2018-03-06T03:39:44.222Z,980.62
2018-03-06T03:40:44.191Z,980.66
2018-03-06T03:41:44.159Z,980.64
2018-03-06T03:42:44.126Z,980.62
2018-03-06T03:43:44.096Z,980.62
2018-03-06T03:44:44.064Z,980.61
2018-03-06T03:45:44.032Z,980.62
2018-03-06T03:46:44.002Z,980.6
2018-03-06T03:47:43.969Z,980.64
2018-03-06T03:48:43.939Z,980.64
2018-03-06T03:49:43.906Z,980.61
2018-03-06T03:50:43.875Z,980.62
2018-03-06T03:51:43.844Z,980.65
2018-03-06T03:52:43.812Z,980.6
2018-03-06T03:53:43.779Z,980.62
2018-03-06T03:54:43.749Z,980.61
2018-03-06T03:55:43.718Z,980.64
2018-03-06T03:56:43.686Z,980.68
2018-03-06T03:57:43.655Z,980.68
2018-03-06T03:58:43.622Z,980.71
2018-03-06T03:59:43.593Z,980.71
2018-03-06T04:00:43.559Z,980.7
2018-03-06T04:01:43.527Z,980.73
2018-03-06T04:02:43.496Z,980.71
2018-03-06T04:03:43.464Z,980.7
2018-03-06T04:04:43.433Z,980.7
2018-03-06T04:05:43.401Z,980.73
2018-03-06T04:06:43.371Z,980.71
2018-03-06T04:07:43.338Z,980.72
2018-03-06T04:08:43.305Z,980.74
2018-03-06T04:09:43.274Z,980.7
2018-03-06T04:10:43.243Z,980.67
2018-03-06T04:11:43.210Z,980.65
2018-03-06T04:12:43.179Z,980.65
2018-03-06T04:13:43.151Z,980.66
2018-03-06T04:14:43.117Z,980.69
2018-03-06T04:15:43.085Z,980.68
2018-03-06T04:16:43.053Z,980.65
2018-03-06T04:17:43.022Z,980.64
2018-03-06T04:18:42.989Z,980.67
2018-03-06T04:19:42.958Z,980.63
2018-03-06T04:20:42.926Z,980.63
2018-03-06T04:21:42.894Z,980.64
2018-03-06T04:22:42.863Z,980.63
2018-03-06T04:23:42.832Z,980.64
2018-03-06T04:24:42.800Z,980.61
2018-03-06T04:25:42.766Z,980.62
2018-03-06T04:26:42.734Z,980.62
2018-03-06T04:27:42.704Z,980.62
2018-03-06T04:28:42.672Z,980.62
2018-03-06T04:29:42.641Z,980.62
2018-03-06T04:30:42.609Z,980.61
2018-03-06T04:31:42.576Z,980.6
2018-03-06T04:32:42.545Z,980.62
2018-03-06T04:33:42.513Z,980.59
2018-03-06T04:34:42.483Z,980.6
2018-03-06T04:35:42.451Z,980.55
2018-03-06T04:36:42.420Z,980.56
2018-03-06T04:37:42.387Z,980.55
2018-03-06T04:38:42.359Z,980.5
2018-03-06T04:39:42.324Z,980.54
2018-03-06T04:40:42.292Z,980.52
2018-03-06T04:41:42.260Z,980.54
2018-03-06T04:42:42.229Z,980.53
2018-03-06T04:43:42.197Z,980.5
2018-03-06T04:44:42.166Z,980.48
2018-03-06T04:45:42.134Z,980.48
2018-03-06T04:46:42.103Z,980.51
2018-03-06T04:47:42.070Z,980.51
2018-03-06T04:48:42.040Z,980.5
2018-03-06T04:49:42.007Z,980.5
2018-03-06T04:50:41.979Z,980.52
2018-03-06T04:51:41.945Z,980.46
2018-03-06T04:52:41.912Z,980.48
2018-03-06T04:53:41.881Z,980.43
2018-03-06T04:54:41.849Z,980.42
2018-03-06T04:55:41.817Z,980.41
2018-03-06T04:56:41.786Z,980.41
2018-03-06T04:57:41.753Z,980.42
2018-03-06T04:58:41.722Z,980.43
2018-03-06T04:59:41.695Z,980.44
2018-03-06T05:00:41.661Z,980.45
2018-03-06T05:01:41.625Z,980.44
2018-03-06T05:02:41.595Z,980.46
2018-03-06T05:03:41.563Z,980.5
2018-03-06T05:04:41.533Z,980.49
2018-03-06T05:05:41.500Z,980.52
2018-03-06T05:06:41.469Z,980.53
2018-03-06T05:07:41.437Z,980.46
2018-03-06T05:08:41.404Z,980.48
2018-03-06T05:09:41.378Z,980.48
2018-03-06T05:10:41.440Z,980.48
2018-03-06T05:11:41.309Z,980.45
2018-03-06T05:12:41.278Z,980.49
2018-03-06T05:13:41.247Z,980.47
2018-03-06T05:14:41.214Z,980.48
2018-03-06T05:15:41.184Z,980.5
2018-03-06T05:16:41.152Z,980.49
2018-03-06T05:17:41.119Z,980.47
2018-03-06T05:18:41.087Z,980.46
2018-03-06T05:19:41.056Z,980.49
2018-03-06T05:20:41.023Z,980.5
2018-03-06T05:21:40.992Z,980.52
2018-03-06T05:22:40.961Z,980.5
2018-03-06T05:23:40.927Z,980.51
2018-03-06T05:24:40.996Z,980.54
2018-03-06T05:25:40.956Z,980.55
2018-03-06T05:26:40.833Z,980.52
2018-03-06T05:27:40.802Z,980.51
2018-03-06T05:28:40.770Z,980.56
2018-03-06T05:29:40.743Z,980.56
2018-03-06T05:30:40.709Z,980.55
2018-03-06T05:31:40.674Z,980.52
2018-03-06T05:32:40.643Z,980.51
2018-03-06T05:33:40.615Z,980.54
2018-03-06T05:34:40.583Z,980.49
2018-03-06T05:35:40.552Z,980.51
2018-03-06T05:36:40.517Z,980.47
2018-03-06T05:37:40.490Z,980.5
2018-03-06T05:38:40.453Z,980.49
2018-03-06T05:39:40.423Z,980.49
2018-03-06T05:40:40.392Z,980.47
2018-03-06T05:41:40.361Z,980.51
2018-03-06T05:42:40.328Z,980.54
2018-03-06T05:43:40.297Z,980.53
2018-03-06T05:44:40.265Z,980.54
2018-03-06T05:45:40.233Z,980.57
2018-03-06T05:46:40.202Z,980.55
2018-03-06T05:47:40.175Z,980.58
2018-03-06T05:48:40.141Z,980.56
2018-03-06T05:49:40.107Z,980.56
2018-03-06T05:50:40.076Z,980.59
2018-03-06T05:51:40.045Z,980.57
2018-03-06T05:52:40.014Z,980.56
2018-03-06T05:53:39.981Z,980.52
2018-03-06T05:54:39.955Z,980.58
2018-03-06T05:55:39.919Z,980.56
2018-03-06T05:56:39.886Z,980.57
2018-03-06T05:57:39.855Z,980.55
2018-03-06T05:58:39.825Z,980.56
2018-03-06T05:59:39.793Z,980.57
2018-03-06T06:00:39.762Z,980.63
2018-03-06T06:01:39.730Z,980.63
2018-03-06T06:02:39.699Z,980.59
2018-03-06T06:03:39.667Z,980.59
2018-03-06T06:04:39.635Z,980.61
2018-03-06T06:05:39.603Z,980.59
2018-03-06T06:06:39.572Z,980.58
2018-03-06T06:07:39.541Z,980.59
2018-03-06T06:08:39.508Z,980.62
2018-03-06T06:09:39.478Z,980.61
2018-03-06T06:10:39.447Z,980.64
2018-03-06T06:11:39.516Z,980.64
2018-03-06T06:12:39.384Z,980.67
2018-03-06T06:13:39.353Z,980.66
2018-03-06T06:14:39.325Z,980.62
2018-03-06T06:15:39.291Z,980.61
2018-03-06T06:16:39.259Z,980.64
2018-03-06T06:17:39.227Z,980.65
2018-03-06T06:18:39.194Z,980.64
2018-03-06T06:19:39.165Z,980.61
2018-03-06T06:20:39.133Z,980.64
2018-03-06T06:21:39.103Z,980.67
2018-03-06T06:22:39.072Z,980.66
2018-03-06T06:23:39.040Z,980.66
2018-03-06T06:24:39.307Z,980.65
2018-03-06T06:25:39.216Z,980.66
2018-03-06T06:26:39.174Z,980.69
2018-03-06T06:27:39.011Z,980.66
2018-03-06T06:28:38.887Z,980.69
2018-03-06T06:29:38.854Z,980.7
2018-03-06T06:30:38.824Z,980.7
2018-03-06T06:31:38.793Z,980.76
2018-03-06T06:32:38.764Z,980.7
2018-03-06T06:33:38.733Z,980.73
2018-03-06T06:34:38.701Z,980.68
2018-03-06T06:35:38.670Z,980.7
2018-03-06T06:36:38.638Z,980.69
2018-03-06T06:37:38.608Z,980.7
2018-03-06T06:38:38.578Z,980.69
2018-03-06T06:39:38.547Z,980.71
2018-03-06T06:40:38.516Z,980.67
2018-03-06T06:41:38.486Z,980.7
2018-03-06T06:42:38.454Z,980.67
2018-03-06T06:43:38.423Z,980.7
2018-03-06T06:44:38.394Z,980.69
2018-03-06T06:45:38.362Z,980.72
2018-03-06T06:46:38.333Z,980.71
2018-03-06T06:47:38.303Z,980.68
2018-03-06T06:48:38.271Z,980.69
2018-03-06T06:49:38.241Z,980.65
2018-03-06T06:50:38.213Z,980.64
2018-03-06T06:51:38.180Z,980.65
2018-03-06T06:52:38.151Z,980.64
2018-03-06T06:53:38.120Z,980.69
2018-03-06T06:54:38.093Z,980.69
2018-03-06T06:55:38.060Z,980.69
2018-03-06T06:56:38.031Z,980.68
2018-03-06T06:57:38.001Z,980.71
2018-03-06T06:58:37.970Z,980.68
2018-03-06T06:59:37.940Z,980.71
2018-03-06T07:00:37.911Z,980.69
2018-03-06T07:01:37.881Z,980.66
2018-03-06T07:02:37.849Z,980.64
2018-03-06T07:03:37.821Z,980.65
2018-03-06T07:04:37.893Z,980.64
2018-03-06T07:05:37.761Z,980.64
2018-03-06T07:06:37.731Z,980.64
2018-03-06T07:07:37.702Z,980.6
2018-03-06T07:08:37.670Z,980.59
2018-03-06T07:09:37.641Z,980.56
2018-03-06T07:10:37.611Z,980.57
2018-03-06T07:11:37.584Z,980.56
2018-03-06T07:12:38.031Z,980.54
2018-03-06T07:13:37.662Z,980.55
2018-03-06T07:14:37.989Z,980.53
2018-03-06T07:15:37.689Z,980.56
2018-03-06T07:16:37.436Z,980.55
2018-03-06T07:17:37.407Z,980.56
2018-03-06T07:18:37.381Z,980.53
2018-03-06T07:19:37.349Z,980.55
2018-03-06T07:20:37.320Z,980.57
2018-03-06T07:21:37.287Z,980.59
2018-03-06T07:22:37.257Z,980.57
2018-03-06T07:23:37.227Z,980.59
2018-03-06T07:24:37.201Z,980.6
2018-03-06T07:25:37.184Z,980.6
2018-03-06T07:26:37.140Z,980.58
2018-03-06T07:27:37.111Z,980.66
2018-03-06T07:28:37.080Z,980.63
2018-03-06T07:29:37.052Z,980.6
2018-03-06T07:30:37.025Z,980.67
2018-03-06T07:31:36.993Z,980.64
2018-03-06T07:32:36.964Z,980.64
2018-03-06T07:33:36.934Z,980.61
2018-03-06T07:34:36.990Z,980.6
2018-03-06T07:35:36.874Z,980.58
2018-03-06T07:36:36.846Z,980.63
2018-03-06T07:37:36.819Z,980.61
2018-03-06T07:38:36.789Z,980.63
2018-03-06T07:39:36.763Z,980.62
2018-03-06T07:40:36.731Z,980.61
2018-03-06T07:41:36.702Z,980.61
2018-03-06T07:42:36.676Z,980.63
2018-03-06T07:43:36.642Z,980.63
2018-03-06T07:44:36.615Z,980.64
2018-03-06T07:45:36.586Z,980.62
2018-03-06T07:46:36.557Z,980.64
2018-03-06T07:47:36.528Z,980.62
2018-03-06T07:48:36.499Z,980.6
2018-03-06T07:49:36.473Z,980.59
2018-03-06T07:50:36.443Z,980.62
2018-03-06T07:51:36.414Z,980.62
2018-03-06T07:52:36.387Z,980.61
2018-03-06T07:53:36.356Z,980.61
2018-03-06T07:54:36.330Z,980.62
2018-03-06T07:55:36.302Z,980.61
2018-03-06T07:56:36.278Z,980.59
2018-03-06T07:57:36.246Z,980.63
2018-03-06T07:58:36.217Z,980.57
2018-03-06T07:59:36.196Z,980.59
2018-03-06T08:00:36.184Z,980.59
2018-03-06T08:01:36.135Z,980.61
2018-03-06T08:02:36.110Z,980.59
2018-03-06T08:03:36.083Z,980.54
2018-03-06T08:04:36.055Z,980.5
2018-03-06T08:05:36.035Z,980.49
2018-03-06T08:06:36.055Z,980.52
2018-03-06T08:07:36.013Z,980.52
2018-03-06T08:08:36.208Z,980.48
2018-03-06T08:09:35.928Z,980.45
2018-03-06T08:10:35.901Z,980.47
2018-03-06T08:11:35.869Z,980.46
2018-03-06T08:12:35.845Z,980.44
2018-03-06T08:13:36.079Z,980.43
2018-03-06T08:14:35.792Z,980.41
2018-03-06T08:15:35.766Z,980.39
2018-03-06T08:16:35.739Z,980.38
2018-03-06T08:17:35.715Z,980.39
2018-03-06T08:18:35.690Z,980.38
2018-03-06T08:19:35.663Z,980.41
2018-03-06T08:20:35.639Z,980.42
2018-03-06T08:21:35.614Z,980.44
2018-03-06T08:22:35.587Z,980.41
2018-03-06T08:23:35.563Z,980.4
2018-03-06T08:24:35.538Z,980.41
2018-03-06T08:25:35.513Z,980.4
2018-03-06T08:26:35.491Z,980.36
2018-03-06T08:27:35.466Z,980.38
2018-03-06T08:28:35.438Z,980.41
2018-03-06T08:29:35.414Z,980.39
2018-03-06T08:30:35.389Z,980.42
2018-03-06T08:31:35.367Z,980.37
2018-03-06T08:32:35.341Z,980.38
2018-03-06T08:33:35.314Z,980.35
2018-03-06T08:34:41.557Z,980.36
2018-03-06T08:35:35.265Z,980.34
2018-03-06T08:36:35.242Z,980.34
2018-03-06T08:37:35.316Z,980.4
2018-03-06T08:38:35.528Z,980.37
2018-03-06T08:39:35.168Z,980.37
2018-03-06T08:40:35.147Z,980.32
2018-03-06T08:41:35.118Z,980.34
2018-03-06T08:42:35.094Z,980.33
2018-03-06T08:43:35.070Z,980.34
2018-03-06T08:44:35.045Z,980.35
2018-03-06T08:45:35.022Z,980.37
2018-03-06T08:46:34.996Z,980.33
2018-03-06T08:47:34.978Z,980.34
2018-03-06T08:48:34.947Z,980.35
2018-03-06T08:49:34.923Z,980.33
2018-03-06T08:50:34.898Z,980.34
2018-03-06T08:51:34.874Z,980.32
2018-03-06T08:52:34.849Z,980.35
2018-03-06T08:53:34.824Z,980.33
2018-03-06T08:54:34.801Z,980.33
2018-03-06T08:55:34.774Z,980.37
2018-03-06T08:56:34.752Z,980.31
2018-03-06T08:57:34.727Z,980.34
2018-03-06T08:58:34.959Z,980.36
2018-03-06T08:59:34.678Z,980.38
2018-03-06T09:00:34.654Z,980.35
2018-03-06T09:01:34.634Z,980.35
2018-03-06T09:02:34.606Z,980.38
2018-03-06T09:03:34.650Z,980.39
2018-03-06T09:04:34.556Z,980.36
2018-03-06T09:05:34.535Z,980.34
2018-03-06T09:06:34.508Z,980.33
2018-03-06T09:07:34.500Z,980.34
2018-03-06T09:08:34.459Z,980.35
2018-03-06T09:09:34.436Z,980.36
2018-03-06T09:10:34.412Z,980.35
2018-03-06T09:11:34.389Z,980.36
2018-03-06T09:12:34.364Z,980.36
2018-03-06T09:13:34.339Z,980.3
2018-03-06T09:14:34.314Z,980.3
2018-03-06T09:15:34.291Z,980.29
2018-03-06T09:16:34.271Z,980.29
2018-03-06T09:17:34.243Z,980.29
2018-03-06T09:18:34.220Z,980.26
2018-03-06T09:19:34.196Z,980.31
2018-03-06T09:20:34.174Z,980.3
2018-03-06T09:21:34.313Z,980.26
2018-03-06T09:22:34.125Z,980.29
2018-03-06T09:23:34.102Z,980.27
2018-03-06T09:24:34.079Z,980.25
2018-03-06T09:25:34.055Z,980.27
2018-03-06T09:26:34.032Z,980.24
2018-03-06T09:27:34.009Z,980.23
2018-03-06T09:28:33.984Z,980.24
2018-03-06T09:29:33.962Z,980.22
2018-03-06T09:30:33.940Z,980.23
2018-03-06T09:31:33.917Z,980.26
2018-03-06T09:32:33.892Z,980.24
2018-03-06T09:33:33.873Z,980.23
2018-03-06T09:34:33.848Z,980.21
2018-03-06T09:35:33.824Z,980.24
2018-03-06T09:36:33.844Z,980.21
2018-03-06T09:37:33.778Z,980.22
2018-03-06T09:38:33.754Z,980.25
2018-03-06T09:39:33.732Z,980.26
2018-03-06T09:40:33.709Z,980.3
2018-03-06T09:41:33.691Z,980.32
2018-03-06T09:42:33.664Z,980.26
2018-03-06T09:43:33.640Z,980.24
2018-03-06T09:44:33.671Z,980.24
2018-03-06T09:45:33.596Z,980.25
2018-03-06T09:46:33.572Z,980.23
2018-03-06T09:47:33.550Z,980.22
2018-03-06T09:48:33.530Z,980.21
2018-03-06T09:49:33.505Z,980.19
2018-03-06T09:50:33.481Z,980.21
2018-03-06T09:51:33.459Z,980.2
2018-03-06T09:52:33.437Z,980.17
2018-03-06T09:53:33.415Z,980.16
2018-03-06T09:54:33.560Z,980.13
2018-03-06T09:55:33.439Z,980.13
2018-03-06T09:56:33.350Z,980.11
2018-03-06T09:57:33.383Z,980.13
2018-03-06T09:58:33.328Z,980.12
2018-03-06T09:59:33.283Z,980.1
2018-03-06T10:00:33.262Z,980.15
2018-03-06T10:01:33.237Z,980.15
2018-03-06T10:02:33.336Z,980.17
2018-03-06T10:03:33.429Z,980.15
2018-03-06T10:04:33.172Z,980.09
2018-03-06T10:05:33.150Z,980.13
2018-03-06T10:06:33.129Z,980.09
2018-03-06T10:07:33.107Z,980.12
2018-03-06T10:08:33.085Z,980.11
2018-03-06T10:09:33.065Z,980.16
2018-03-06T10:10:33.043Z,980.11
2018-03-06T10:11:33.023Z,980.12
2018-03-06T10:12:33.000Z,980.16
2018-03-06T10:13:33.049Z,980.14
2018-03-06T10:14:32.958Z,980.11
2018-03-06T10:15:32.937Z,980.08
2018-03-06T10:16:32.917Z,980.05
2018-03-06T10:17:32.994Z,980.06
2018-03-06T10:18:32.874Z,980.11
2018-03-06T10:19:33.335Z,980.07
2018-03-06T10:20:32.847Z,980.12
2018-03-06T10:21:32.912Z,980.1
2018-03-06T10:22:32.796Z,980.12
2018-03-06T10:23:32.770Z,980.12
2018-03-06T10:24:32.751Z,980.11
2018-03-06T10:25:32.730Z,980.11
2018-03-06T10:26:32.709Z,980.12
2018-03-06T10:27:32.688Z,980.13
2018-03-06T10:28:32.668Z,980.13
2018-03-06T10:29:32.647Z,980.18
2018-03-06T10:30:32.627Z,980.19
2018-03-06T10:31:32.607Z,980.2
2018-03-06T10:32:32.586Z,980.2
2018-03-06T10:33:32.566Z,980.18
2018-03-06T10:34:32.543Z,980.21
2018-03-06T10:35:32.526Z,980.21
2018-03-06T10:36:32.582Z,980.18
2018-03-06T10:37:32.484Z,980.16
2018-03-06T10:38:32.463Z,980.14
2018-03-06T10:39:32.442Z,980.15
2018-03-06T10:40:32.422Z,980.14
2018-03-06T10:41:32.401Z,980.13
2018-03-06T10:42:32.381Z,980.12
2018-03-06T10:43:32.361Z,980.13
2018-03-06T10:44:32.340Z,980.12
2018-03-06T10:45:32.319Z,980.15
2018-03-06T10:46:32.299Z,980.14
2018-03-06T10:47:32.281Z,980.16
2018-03-06T10:48:32.259Z,980.15
2018-03-06T10:49:32.237Z,980.14
2018-03-06T10:50:32.216Z,980.1
2018-03-06T10:51:32.219Z,980.12
2018-03-06T10:52:32.175Z,980.11
2018-03-06T10:53:32.155Z,980.11
2018-03-06T10:54:32.135Z,980.11
2018-03-06T10:55:32.114Z,980.13
2018-03-06T10:56:32.092Z,980.14
2018-03-06T10:57:32.072Z,980.12
2018-03-06T10:58:32.087Z,980.1
2018-03-06T10:59:32.036Z,980.11
2018-03-06T11:00:32.023Z,980.14
2018-03-06T11:01:31.996Z,980.1
2018-03-06T11:02:31.973Z,980.1
2018-03-06T11:03:31.948Z,980.11
2018-03-06T11:04:31.928Z,980.12
2018-03-06T11:05:31.908Z,980.11
2018-03-06T11:06:31.887Z,980.1
2018-03-06T11:07:31.866Z,980.09
2018-03-06T11:08:31.846Z,980.1
2018-03-06T11:09:31.826Z,980.07
2018-03-06T11:10:31.804Z,980.05
2018-03-06T11:11:31.786Z,980.04
2018-03-06T11:12:31.766Z,980.05
2018-03-06T11:13:31.745Z,980.1
2018-03-06T11:14:31.724Z,980.09
2018-03-06T11:15:31.706Z,980.1
2018-03-06T11:16:31.684Z,980.08
2018-03-06T11:17:31.664Z,980.04
2018-03-06T11:18:31.667Z,980.02
2018-03-06T11:19:31.625Z,980.02
2018-03-06T11:20:31.602Z,980.01
2018-03-06T11:21:31.582Z,980.04
2018-03-06T11:22:31.562Z,980.06
2018-03-06T11:23:31.602Z,980.02
2018-03-06T11:24:31.521Z,980.02
2018-03-06T11:25:31.505Z,979.99
2018-03-06T11:26:31.484Z,980.02
2018-03-06T11:27:31.462Z,980.02
2018-03-06T11:28:31.442Z,979.99
2018-03-06T11:29:31.423Z,979.97
2018-03-06T11:30:31.401Z,979.98
2018-03-06T11:31:31.646Z,979.98
2018-03-06T11:32:31.410Z,979.99
2018-03-06T11:33:31.608Z,980.03
2018-03-06T11:34:31.562Z,980.01
2018-03-06T11:35:31.302Z,979.93
2018-03-06T11:36:31.282Z,979.93
2018-03-06T11:37:31.262Z,979.96
2018-03-06T11:38:31.243Z,979.94
2018-03-06T11:39:31.224Z,979.91
2018-03-06T11:40:31.204Z,979.93
2018-03-06T11:41:31.184Z,979.93
2018-03-06T11:42:31.165Z,979.91
2018-03-06T11:43:31.144Z,979.88
2018-03-06T11:44:31.126Z,979.82
2018-03-06T11:45:31.107Z,979.83
2018-03-06T11:46:31.086Z,979.88
2018-03-06T11:47:31.067Z,979.87
2018-03-06T11:48:31.052Z,979.88
2018-03-06T11:49:31.030Z,979.83
2018-03-06T11:50:31.011Z,979.87
2018-03-06T11:51:30.991Z,979.82
2018-03-06T11:52:30.975Z,979.84
2018-03-06T11:53:30.954Z,979.87
2018-03-06T11:54:30.935Z,979.86
2018-03-06T11:55:30.915Z,979.84
2018-03-06T11:56:30.897Z,979.86
2018-03-06T11:57:30.878Z,979.88
2018-03-06T11:58:30.859Z,979.87
2018-03-06T11:59:30.848Z,979.86
2018-03-06T12:00:30.822Z,979.88
2018-03-06T12:01:30.803Z,979.86
2018-03-06T12:02:30.936Z,979.88
2018-03-06T12:03:30.765Z,979.87
2018-03-06T12:04:30.747Z,979.88
2018-03-06T12:05:30.729Z,979.87
2018-03-06T12:06:30.709Z,979.85
2018-03-06T12:07:30.693Z,979.88
2018-03-06T12:08:30.674Z,979.9
2018-03-06T12:09:30.655Z,979.9
2018-03-06T12:10:30.636Z,979.85
2018-03-06T12:11:30.618Z,979.82
2018-03-06T12:12:30.599Z,979.86
2018-03-06T12:13:30.581Z,979.83
2018-03-06T12:14:30.564Z,979.88
2018-03-06T12:15:30.546Z,979.83
2018-03-06T12:16:30.526Z,979.89
2018-03-06T12:17:30.508Z,979.86
2018-03-06T12:18:30.490Z,979.86
2018-03-06T12:19:30.471Z,979.88
2018-03-06T12:20:31.031Z,979.87
2018-03-06T12:21:30.453Z,979.88
2018-03-06T12:22:30.420Z,979.87
2018-03-06T12:23:30.400Z,979.85
2018-03-06T12:24:30.627Z,979.86
2018-03-06T12:25:30.809Z,979.86
2018-03-06T12:26:30.911Z,979.86
2018-03-06T12:27:30.916Z,979.84
2018-03-06T12:28:30.308Z,979.84
2018-03-06T12:29:30.495Z,979.79
2018-03-06T12:30:30.506Z,979.77
2018-03-06T12:31:30.769Z,979.79